sensor_id;sensor_type;location;lat;lon;timestamp;temperature;humidity
14962;DHT22;56489;53.166;10.864;2022-10-18T00:00:05;16.00;99.90
14962;DHT22;56489;53.166;10.864;2022-10-18T00:02:32;16.00;99.90
14962;DHT22;56489;53.166;10.864;2022-10-18T00:04:59;16.00;99.90
14962;DHT22;56489;53.166;10.864;2022-10-18T00:07:26;16.00;99.90
14962;DHT22;56489;53.166;10.864;2022-10-18T00:09:53;16.00;99.90
14962;DHT22;56489;53.166;10.864;2022-10-18T00:12:20;16.00;99.90
14962;DHT22;56489;53.166;10.864;2022-10-18T00:14:49;16.00;99.90
14962;DHT22;56489;53.166;10.864;2022-10-18T00:17:17;16.00;99.90
14962;DHT22;56489;53.166;10.864;2022-10-18T00:19:43;16.00;99.90
14962;DHT22;56489;53.166;10.864;2022-10-18T00:22:10;16.00;99.90
14962;DHT22;56489;53.166;10.864;2022-10-18T00:24:37;16.00;99.90
14962;DHT22;56489;53.166;10.864;2022-10-18T00:27:04;16.00;99.90
14962;DHT22;56489;53.166;10.864;2022-10-18T00:29:31;16.00;99.90
14962;DHT22;56489;53.166;10.864;2022-10-18T00:31:57;16.00;99.90
14962;DHT22;56489;53.166;10.864;2022-10-18T00:34:24;16.00;99.90
14962;DHT22;56489;53.166;10.864;2022-10-18T00:36:51;16.00;99.90
14962;DHT22;56489;53.166;10.864;2022-10-18T00:39:19;16.00;99.90
14962;DHT22;56489;53.166;10.864;2022-10-18T00:41:48;16.00;99.90
14962;DHT22;56489;53.166;10.864;2022-10-18T00:46:46;16.00;99.90
14962;DHT22;56489;53.166;10.864;2022-10-18T00:49:22;16.00;99.90
14962;DHT22;56489;53.166;10.864;2022-10-18T00:52:02;16.00;99.90
14962;DHT22;56489;53.166;10.864;2022-10-18T00:54:32;16.00;99.90
14962;DHT22;56489;53.166;10.864;2022-10-18T00:57:00;15.90;99.90
14962;DHT22;56489;53.166;10.864;2022-10-18T00:59:28;15.90;99.90
14962;DHT22;56489;53.166;10.864;2022-10-18T01:01:55;15.90;99.90
14962;DHT22;56489;53.166;10.864;2022-10-18T01:04:22;15.80;99.90
14962;DHT22;56489;53.166;10.864;2022-10-18T01:07:18;15.80;99.90
14962;DHT22;56489;53.166;10.864;2022-10-18T01:10:02;15.80;99.90
14962;DHT22;56489;53.166;10.864;2022-10-18T01:15:39;15.70;99.90
14962;DHT22;56489;53.166;10.864;2022-10-18T01:18:20;15.70;99.90
14962;DHT22;56489;53.166;10.864;2022-10-18T01:31:56;15.60;99.90
14962;DHT22;56489;53.166;10.864;2022-10-18T01:34:26;15.60;99.90
14962;DHT22;56489;53.166;10.864;2022-10-18T01:36:56;15.50;99.90
14962;DHT22;56489;53.166;10.864;2022-10-18T01:39:32;15.50;99.90
14962;DHT22;56489;53.166;10.864;2022-10-18T01:42:03;15.50;99.90
14962;DHT22;56489;53.166;10.864;2022-10-18T01:44:32;15.40;99.90
14962;DHT22;56489;53.166;10.864;2022-10-18T01:47:00;15.40;99.90
14962;DHT22;56489;53.166;10.864;2022-10-18T01:49:27;15.40;99.90
14962;DHT22;56489;53.166;10.864;2022-10-18T01:51:54;15.40;99.90
14962;DHT22;56489;53.166;10.864;2022-10-18T01:54:30;15.40;99.90
14962;DHT22;56489;53.166;10.864;2022-10-18T02:02:27;15.30;99.90
14962;DHT22;56489;53.166;10.864;2022-10-18T02:08:29;15.30;99.90
14962;DHT22;56489;53.166;10.864;2022-10-18T02:11:08;15.30;99.90
14962;DHT22;56489;53.166;10.864;2022-10-18T02:14:04;15.30;99.90
14962;DHT22;56489;53.166;10.864;2022-10-18T02:16:34;15.20;99.90
14962;DHT22;56489;53.166;10.864;2022-10-18T02:19:13;15.20;99.90
14962;DHT22;56489;53.166;10.864;2022-10-18T02:21:42;15.20;99.90
14962;DHT22;56489;53.166;10.864;2022-10-18T02:24:13;15.20;99.90
14962;DHT22;56489;53.166;10.864;2022-10-18T02:26:41;15.10;99.90
14962;DHT22;56489;53.166;10.864;2022-10-18T02:29:08;15.10;99.90
14962;DHT22;56489;53.166;10.864;2022-10-18T02:31:42;15.10;99.90
14962;DHT22;56489;53.166;10.864;2022-10-18T02:34:24;15.10;99.90
14962;DHT22;56489;53.166;10.864;2022-10-18T02:36:59;15.10;99.90
14962;DHT22;56489;53.166;10.864;2022-10-18T02:41:57;15.00;99.90
14962;DHT22;56489;53.166;10.864;2022-10-18T02:44:24;15.00;99.90
14962;DHT22;56489;53.166;10.864;2022-10-18T02:46:51;14.90;99.90
14962;DHT22;56489;53.166;10.864;2022-10-18T02:49:18;14.90;99.90
14962;DHT22;56489;53.166;10.864;2022-10-18T02:51:45;14.80;99.90
14962;DHT22;56489;53.166;10.864;2022-10-18T02:54:12;14.80;99.90
14962;DHT22;56489;53.166;10.864;2022-10-18T02:56:38;14.80;99.90
14962;DHT22;56489;53.166;10.864;2022-10-18T02:59:05;14.80;99.90
14962;DHT22;56489;53.166;10.864;2022-10-18T03:01:33;14.70;99.90
14962;DHT22;56489;53.166;10.864;2022-10-18T03:04:04;14.70;99.90
14962;DHT22;56489;53.166;10.864;2022-10-18T03:06:32;14.70;99.90
14962;DHT22;56489;53.166;10.864;2022-10-18T03:09:00;14.60;99.90
14962;DHT22;56489;53.166;10.864;2022-10-18T03:11:27;14.60;99.90
14962;DHT22;56489;53.166;10.864;2022-10-18T03:13:54;14.50;99.90
14962;DHT22;56489;53.166;10.864;2022-10-18T03:16:21;14.50;99.90
14962;DHT22;56489;53.166;10.864;2022-10-18T03:18:48;14.50;99.90
14962;DHT22;56489;53.166;10.864;2022-10-18T03:21:14;14.40;99.90
14962;DHT22;56489;53.166;10.864;2022-10-18T03:23:41;14.40;99.90
14962;DHT22;56489;53.166;10.864;2022-10-18T03:26:08;14.30;99.90
14962;DHT22;56489;53.166;10.864;2022-10-18T03:28:35;14.20;99.90
14962;DHT22;56489;53.166;10.864;2022-10-18T03:31:03;14.20;99.90
14962;DHT22;56489;53.166;10.864;2022-10-18T03:33:31;14.10;99.90
14962;DHT22;56489;53.166;10.864;2022-10-18T03:35:58;14.00;99.90
14962;DHT22;56489;53.166;10.864;2022-10-18T03:38:25;14.00;99.90
14962;DHT22;56489;53.166;10.864;2022-10-18T03:40:52;13.90;99.90
14962;DHT22;56489;53.166;10.864;2022-10-18T03:43:19;13.90;99.90
14962;DHT22;56489;53.166;10.864;2022-10-18T03:45:46;13.80;99.90
14962;DHT22;56489;53.166;10.864;2022-10-18T03:48:13;13.70;99.90
14962;DHT22;56489;53.166;10.864;2022-10-18T03:50:41;13.70;99.90
14962;DHT22;56489;53.166;10.864;2022-10-18T03:53:08;13.60;99.90
14962;DHT22;56489;53.166;10.864;2022-10-18T03:55:35;13.60;99.90
14962;DHT22;56489;53.166;10.864;2022-10-18T03:58:03;13.50;99.90
14962;DHT22;56489;53.166;10.864;2022-10-18T04:00:29;13.50;99.90
14962;DHT22;56489;53.166;10.864;2022-10-18T04:02:56;13.40;99.90
14962;DHT22;56489;53.166;10.864;2022-10-18T04:05:23;13.40;99.90
14962;DHT22;56489;53.166;10.864;2022-10-18T04:07:52;13.40;99.90
14962;DHT22;56489;53.166;10.864;2022-10-18T04:10:20;13.30;99.90
14962;DHT22;56489;53.166;10.864;2022-10-18T04:12:47;13.30;99.90
14962;DHT22;56489;53.166;10.864;2022-10-18T04:15:14;13.30;99.90
14962;DHT22;56489;53.166;10.864;2022-10-18T04:17:40;13.20;99.90
14962;DHT22;56489;53.166;10.864;2022-10-18T04:20:08;13.20;99.90
14962;DHT22;56489;53.166;10.864;2022-10-18T04:22:34;13.20;99.90
14962;DHT22;56489;53.166;10.864;2022-10-18T04:25:01;13.20;99.90
14962;DHT22;56489;53.166;10.864;2022-10-18T04:27:28;13.80;99.90
14962;DHT22;56489;53.166;10.864;2022-10-18T04:29:55;12.70;99.90
14962;DHT22;56489;53.166;10.864;2022-10-18T04:32:22;13.10;99.90
14962;DHT22;56489;53.166;10.864;2022-10-18T04:34:49;13.10;99.90
14962;DHT22;56489;53.166;10.864;2022-10-18T04:37:15;13.10;99.90
14962;DHT22;56489;53.166;10.864;2022-10-18T04:39:42;13.30;99.90
14962;DHT22;56489;53.166;10.864;2022-10-18T04:42:18;13.00;99.90
14962;DHT22;56489;53.166;10.864;2022-10-18T04:44:44;12.90;99.90
14962;DHT22;56489;53.166;10.864;2022-10-18T04:47:11;12.90;99.90
14962;DHT22;56489;53.166;10.864;2022-10-18T04:49:38;12.80;99.90
14962;DHT22;56489;53.166;10.864;2022-10-18T04:52:05;12.80;99.90
14962;DHT22;56489;53.166;10.864;2022-10-18T04:54:32;12.80;99.90
14962;DHT22;56489;53.166;10.864;2022-10-18T04:56:59;12.80;99.90
14962;DHT22;56489;53.166;10.864;2022-10-18T04:59:26;12.80;99.90
14962;DHT22;56489;53.166;10.864;2022-10-18T05:01:52;12.70;99.90
14962;DHT22;56489;53.166;10.864;2022-10-18T05:04:19;12.70;99.90
14962;DHT22;56489;53.166;10.864;2022-10-18T05:06:46;12.70;99.90
14962;DHT22;56489;53.166;10.864;2022-10-18T05:09:13;12.70;99.90
14962;DHT22;56489;53.166;10.864;2022-10-18T05:11:39;12.70;99.90
14962;DHT22;56489;53.166;10.864;2022-10-18T05:14:06;12.60;99.90
14962;DHT22;56489;53.166;10.864;2022-10-18T05:16:36;12.60;99.90
14962;DHT22;56489;53.166;10.864;2022-10-18T05:19:03;12.60;99.90
14962;DHT22;56489;53.166;10.864;2022-10-18T05:21:31;12.50;99.90
14962;DHT22;56489;53.166;10.864;2022-10-18T05:23:58;12.50;99.90
14962;DHT22;56489;53.166;10.864;2022-10-18T05:26:25;12.50;99.90
14962;DHT22;56489;53.166;10.864;2022-10-18T05:28:52;12.40;99.90
14962;DHT22;56489;53.166;10.864;2022-10-18T05:31:19;12.40;99.90
14962;DHT22;56489;53.166;10.864;2022-10-18T05:33:47;12.40;99.90
14962;DHT22;56489;53.166;10.864;2022-10-18T05:36:14;12.30;99.90
14962;DHT22;56489;53.166;10.864;2022-10-18T05:38:42;12.30;99.90
14962;DHT22;56489;53.166;10.864;2022-10-18T05:41:09;12.20;99.90
14962;DHT22;56489;53.166;10.864;2022-10-18T05:43:37;12.20;99.90
14962;DHT22;56489;53.166;10.864;2022-10-18T05:46:04;12.20;99.90
14962;DHT22;56489;53.166;10.864;2022-10-18T05:48:40;12.20;99.90
14962;DHT22;56489;53.166;10.864;2022-10-18T05:51:07;12.20;99.90
14962;DHT22;56489;53.166;10.864;2022-10-18T05:53:34;12.20;99.90
14962;DHT22;56489;53.166;10.864;2022-10-18T05:56:04;12.20;99.90
14962;DHT22;56489;53.166;10.864;2022-10-18T05:58:31;12.20;99.90
14962;DHT22;56489;53.166;10.864;2022-10-18T06:00:59;12.20;99.90
14962;DHT22;56489;53.166;10.864;2022-10-18T06:03:26;12.30;99.90
14962;DHT22;56489;53.166;10.864;2022-10-18T06:06:02;12.30;99.90
14962;DHT22;56489;53.166;10.864;2022-10-18T06:08:30;12.50;99.90
14962;DHT22;56489;53.166;10.864;2022-10-18T06:10:57;12.50;99.90
14962;DHT22;56489;53.166;10.864;2022-10-18T06:13:23;12.60;99.90
14962;DHT22;56489;53.166;10.864;2022-10-18T06:15:54;12.70;99.90
14962;DHT22;56489;53.166;10.864;2022-10-18T06:18:22;12.90;99.90
14962;DHT22;56489;53.166;10.864;2022-10-18T06:20:55;12.80;99.90
14962;DHT22;56489;53.166;10.864;2022-10-18T06:23:22;12.80;99.90
14962;DHT22;56489;53.166;10.864;2022-10-18T06:25:49;12.90;99.90
14962;DHT22;56489;53.166;10.864;2022-10-18T06:28:16;12.90;99.90
14962;DHT22;56489;53.166;10.864;2022-10-18T06:30:43;13.00;99.90
14962;DHT22;56489;53.166;10.864;2022-10-18T06:33:09;13.00;99.90
14962;DHT22;56489;53.166;10.864;2022-10-18T06:35:37;13.10;99.90
14962;DHT22;56489;53.166;10.864;2022-10-18T06:38:04;13.10;99.90
14962;DHT22;56489;53.166;10.864;2022-10-18T06:40:32;13.20;99.90
14962;DHT22;56489;53.166;10.864;2022-10-18T06:43:03;13.30;99.90
14962;DHT22;56489;53.166;10.864;2022-10-18T06:45:47;13.30;99.90
14962;DHT22;56489;53.166;10.864;2022-10-18T06:48:14;13.40;99.90
14962;DHT22;56489;53.166;10.864;2022-10-18T06:50:41;13.50;99.90
14962;DHT22;56489;53.166;10.864;2022-10-18T06:53:08;13.50;99.90
14962;DHT22;56489;53.166;10.864;2022-10-18T06:55:35;13.60;99.90
14962;DHT22;56489;53.166;10.864;2022-10-18T06:58:02;13.60;99.90
14962;DHT22;56489;53.166;10.864;2022-10-18T07:00:28;13.60;99.90
14962;DHT22;56489;53.166;10.864;2022-10-18T07:02:56;13.70;99.90
14962;DHT22;56489;53.166;10.864;2022-10-18T07:05:23;13.70;99.90
14962;DHT22;56489;53.166;10.864;2022-10-18T07:07:50;13.80;99.90
14962;DHT22;56489;53.166;10.864;2022-10-18T07:10:22;13.80;99.90
14962;DHT22;56489;53.166;10.864;2022-10-18T07:12:50;13.90;99.90
14962;DHT22;56489;53.166;10.864;2022-10-18T07:15:21;13.90;99.90
14962;DHT22;56489;53.166;10.864;2022-10-18T07:17:49;14.00;99.90
14962;DHT22;56489;53.166;10.864;2022-10-18T07:20:16;14.10;99.90
14962;DHT22;56489;53.166;10.864;2022-10-18T07:22:43;14.10;99.90
14962;DHT22;56489;53.166;10.864;2022-10-18T07:25:10;14.10;99.90
14962;DHT22;56489;53.166;10.864;2022-10-18T07:27:41;14.10;99.90
14962;DHT22;56489;53.166;10.864;2022-10-18T07:30:10;14.10;99.90
14962;DHT22;56489;53.166;10.864;2022-10-18T07:32:36;14.10;99.90
14962;DHT22;56489;53.166;10.864;2022-10-18T07:35:03;14.10;99.90
14962;DHT22;56489;53.166;10.864;2022-10-18T07:37:30;14.10;99.90
14962;DHT22;56489;53.166;10.864;2022-10-18T07:39:57;14.20;99.90
14962;DHT22;56489;53.166;10.864;2022-10-18T07:42:24;14.20;99.90
14962;DHT22;56489;53.166;10.864;2022-10-18T07:44:51;14.30;99.90
14962;DHT22;56489;53.166;10.864;2022-10-18T07:47:18;14.30;99.90
14962;DHT22;56489;53.166;10.864;2022-10-18T07:49:45;14.40;99.90
14962;DHT22;56489;53.166;10.864;2022-10-18T07:52:12;14.50;99.90
14962;DHT22;56489;53.166;10.864;2022-10-18T07:54:38;14.50;99.90
14962;DHT22;56489;53.166;10.864;2022-10-18T07:57:05;14.60;99.90
14962;DHT22;56489;53.166;10.864;2022-10-18T07:59:32;14.60;99.90
14962;DHT22;56489;53.166;10.864;2022-10-18T08:01:59;14.70;99.90
14962;DHT22;56489;53.166;10.864;2022-10-18T08:04:26;14.70;99.90
14962;DHT22;56489;53.166;10.864;2022-10-18T08:06:53;14.80;99.90
14962;DHT22;56489;53.166;10.864;2022-10-18T08:09:20;14.90;99.90
14962;DHT22;56489;53.166;10.864;2022-10-18T08:11:46;14.90;99.90
14962;DHT22;56489;53.166;10.864;2022-10-18T08:14:13;15.00;99.90
14962;DHT22;56489;53.166;10.864;2022-10-18T08:16:41;15.00;99.90
14962;DHT22;56489;53.166;10.864;2022-10-18T08:19:07;15.10;99.90
14962;DHT22;56489;53.166;10.864;2022-10-18T08:21:34;15.20;99.90
14962;DHT22;56489;53.166;10.864;2022-10-18T08:24:01;15.30;99.90
14962;DHT22;56489;53.166;10.864;2022-10-18T08:26:27;15.30;99.90
14962;DHT22;56489;53.166;10.864;2022-10-18T08:28:54;15.40;99.90
14962;DHT22;56489;53.166;10.864;2022-10-18T08:31:41;16.50;99.90
14962;DHT22;56489;53.166;10.864;2022-10-18T08:34:08;15.20;99.90
14962;DHT22;56489;53.166;10.864;2022-10-18T08:36:34;15.60;99.90
14962;DHT22;56489;53.166;10.864;2022-10-18T08:39:02;15.60;99.90
14962;DHT22;56489;53.166;10.864;2022-10-18T08:44:46;15.60;99.90
14962;DHT22;56489;53.166;10.864;2022-10-18T08:47:33;15.60;99.90
14962;DHT22;56489;53.166;10.864;2022-10-18T08:50:05;15.70;99.90
14962;DHT22;56489;53.166;10.864;2022-10-18T08:55:30;15.80;99.90
14962;DHT22;56489;53.166;10.864;2022-10-18T09:06:26;16.20;99.90
14962;DHT22;56489;53.166;10.864;2022-10-18T09:11:46;16.40;99.90
14962;DHT22;56489;53.166;10.864;2022-10-18T09:17:27;16.40;99.90
14962;DHT22;56489;53.166;10.864;2022-10-18T09:22:53;16.50;99.90
14962;DHT22;56489;53.166;10.864;2022-10-18T09:25:44;16.50;99.90
14962;DHT22;56489;53.166;10.864;2022-10-18T09:28:15;16.60;99.90
14962;DHT22;56489;53.166;10.864;2022-10-18T09:31:04;16.60;99.90
14962;DHT22;56489;53.166;10.864;2022-10-18T09:34:04;16.60;99.90
14962;DHT22;56489;53.166;10.864;2022-10-18T09:36:36;16.60;99.90
14962;DHT22;56489;53.166;10.864;2022-10-18T09:39:15;16.60;99.90
14962;DHT22;56489;53.166;10.864;2022-10-18T09:41:56;16.70;99.90
14962;DHT22;56489;53.166;10.864;2022-10-18T09:44:24;16.60;99.90
14962;DHT22;56489;53.166;10.864;2022-10-18T09:47:07;16.70;99.90
14962;DHT22;56489;53.166;10.864;2022-10-18T09:49:46;16.60;99.90
14962;DHT22;56489;53.166;10.864;2022-10-18T09:52:22;16.60;99.90
14962;DHT22;56489;53.166;10.864;2022-10-18T09:54:54;16.60;99.90
14962;DHT22;56489;53.166;10.864;2022-10-18T09:57:42;16.60;99.90
14962;DHT22;56489;53.166;10.864;2022-10-18T10:00:27;16.60;99.90
14962;DHT22;56489;53.166;10.864;2022-10-18T10:02:55;16.60;99.90
14962;DHT22;56489;53.166;10.864;2022-10-18T10:05:21;16.60;99.90
14962;DHT22;56489;53.166;10.864;2022-10-18T10:07:48;16.60;99.90
14962;DHT22;56489;53.166;10.864;2022-10-18T10:10:21;16.60;99.90
14962;DHT22;56489;53.166;10.864;2022-10-18T10:13:03;16.60;99.90
14962;DHT22;56489;53.166;10.864;2022-10-18T10:15:32;16.70;99.90
14962;DHT22;56489;53.166;10.864;2022-10-18T10:18:19;16.60;99.90
14962;DHT22;56489;53.166;10.864;2022-10-18T10:20:55;16.50;99.90
14962;DHT22;56489;53.166;10.864;2022-10-18T10:23:28;16.50;99.90
14962;DHT22;56489;53.166;10.864;2022-10-18T10:25:58;16.50;99.90
14962;DHT22;56489;53.166;10.864;2022-10-18T10:28:28;16.40;99.90
14962;DHT22;56489;53.166;10.864;2022-10-18T10:31:20;16.40;99.90
14962;DHT22;56489;53.166;10.864;2022-10-18T10:36:52;16.20;99.90
14962;DHT22;56489;53.166;10.864;2022-10-18T10:39:21;16.10;99.90
14962;DHT22;56489;53.166;10.864;2022-10-18T10:41:53;16.00;99.90
14962;DHT22;56489;53.166;10.864;2022-10-18T10:44:23;15.90;99.90
14962;DHT22;56489;53.166;10.864;2022-10-18T10:46:51;15.80;99.90
14962;DHT22;56489;53.166;10.864;2022-10-18T10:49:28;15.80;99.90
14962;DHT22;56489;53.166;10.864;2022-10-18T10:52:16;15.70;99.90
14962;DHT22;56489;53.166;10.864;2022-10-18T10:54:54;15.70;99.90
14962;DHT22;56489;53.166;10.864;2022-10-18T10:57:37;15.70;99.90
14962;DHT22;56489;53.166;10.864;2022-10-18T11:00:04;15.70;99.90
14962;DHT22;56489;53.166;10.864;2022-10-18T11:02:33;15.70;99.90
14962;DHT22;56489;53.166;10.864;2022-10-18T11:05:24;15.70;99.90
14962;DHT22;56489;53.166;10.864;2022-10-18T11:07:53;15.80;99.90
14962;DHT22;56489;53.166;10.864;2022-10-18T11:10:25;15.80;99.90
14962;DHT22;56489;53.166;10.864;2022-10-18T11:13:16;15.80;99.90
14962;DHT22;56489;53.166;10.864;2022-10-18T11:15:59;15.80;99.90
14962;DHT22;56489;53.166;10.864;2022-10-18T11:18:35;15.80;99.90
14962;DHT22;56489;53.166;10.864;2022-10-18T11:21:18;15.80;99.90
14962;DHT22;56489;53.166;10.864;2022-10-18T11:23:45;15.90;99.90
14962;DHT22;56489;53.166;10.864;2022-10-18T11:26:16;15.80;99.90
14962;DHT22;56489;53.166;10.864;2022-10-18T11:31:50;15.90;99.90
14962;DHT22;56489;53.166;10.864;2022-10-18T11:40:13;16.00;99.90
14962;DHT22;56489;53.166;10.864;2022-10-18T11:43:04;16.00;99.90
14962;DHT22;56489;53.166;10.864;2022-10-18T11:45:50;16.00;99.90
14962;DHT22;56489;53.166;10.864;2022-10-18T11:57:24;16.20;99.90
14962;DHT22;56489;53.166;10.864;2022-10-18T12:00:17;16.20;99.90
14962;DHT22;56489;53.166;10.864;2022-10-18T12:05:51;16.30;99.90
14962;DHT22;56489;53.166;10.864;2022-10-18T12:08:39;16.30;99.90
14962;DHT22;56489;53.166;10.864;2022-10-18T12:11:20;16.40;99.90
14962;DHT22;56489;53.166;10.864;2022-10-18T12:13:59;16.40;99.90
14962;DHT22;56489;53.166;10.864;2022-10-18T12:16:31;16.40;99.90
14962;DHT22;56489;53.166;10.864;2022-10-18T12:19:20;16.50;99.90
14962;DHT22;56489;53.166;10.864;2022-10-18T12:21:55;16.50;99.90
14962;DHT22;56489;53.166;10.864;2022-10-18T12:24:26;16.50;99.90
14962;DHT22;56489;53.166;10.864;2022-10-18T12:26:58;16.50;99.90
14962;DHT22;56489;53.166;10.864;2022-10-18T12:29:30;16.60;99.90
14962;DHT22;56489;53.166;10.864;2022-10-18T12:32:05;16.50;99.90
14962;DHT22;56489;53.166;10.864;2022-10-18T12:34:48;16.50;99.90
14962;DHT22;56489;53.166;10.864;2022-10-18T12:37:52;16.50;99.90
14962;DHT22;56489;53.166;10.864;2022-10-18T12:40:42;16.60;99.90
14962;DHT22;56489;53.166;10.864;2022-10-18T12:43:17;16.60;99.90
14962;DHT22;56489;53.166;10.864;2022-10-18T12:48:29;16.70;99.90
14962;DHT22;56489;53.166;10.864;2022-10-18T12:51:20;16.80;99.90
14962;DHT22;56489;53.166;10.864;2022-10-18T12:53:55;16.80;99.90
14962;DHT22;56489;53.166;10.864;2022-10-18T12:56:36;16.80;99.90
14962;DHT22;56489;53.166;10.864;2022-10-18T13:09:25;16.70;99.90
14962;DHT22;56489;53.166;10.864;2022-10-18T13:12:34;16.70;99.90
14962;DHT22;56489;53.166;10.864;2022-10-18T13:17:46;16.80;99.90
14962;DHT22;56489;53.166;10.864;2022-10-18T13:20:24;16.80;99.90
14962;DHT22;56489;53.166;10.864;2022-10-18T13:23:30;16.70;99.90
14962;DHT22;56489;53.166;10.864;2022-10-18T13:26:25;16.70;99.90
14962;DHT22;56489;53.166;10.864;2022-10-18T13:34:25;16.50;99.90
14962;DHT22;56489;53.166;10.864;2022-10-18T13:39:36;16.40;99.90
14962;DHT22;56489;53.166;10.864;2022-10-18T13:44:43;16.40;99.90
14962;DHT22;56489;53.166;10.864;2022-10-18T13:47:14;16.40;99.90
14962;DHT22;56489;53.166;10.864;2022-10-18T13:49:49;16.30;99.90
14962;DHT22;56489;53.166;10.864;2022-10-18T13:58:17;16.20;99.90
14962;DHT22;56489;53.166;10.864;2022-10-18T14:06:27;16.10;99.90
14962;DHT22;56489;53.166;10.864;2022-10-18T14:09:10;16.10;99.90
14962;DHT22;56489;53.166;10.864;2022-10-18T14:14:40;15.90;99.90
14962;DHT22;56489;53.166;10.864;2022-10-18T14:23:19;15.80;99.90
14962;DHT22;56489;53.166;10.864;2022-10-18T14:25:47;15.80;99.90
14962;DHT22;56489;53.166;10.864;2022-10-18T14:28:16;15.80;99.90
14962;DHT22;56489;53.166;10.864;2022-10-18T14:31:04;15.70;99.90
14962;DHT22;56489;53.166;10.864;2022-10-18T14:33:41;15.70;99.90
14962;DHT22;56489;53.166;10.864;2022-10-18T14:38:53;15.70;99.90
14962;DHT22;56489;53.166;10.864;2022-10-18T14:43:47;15.60;99.90
14962;DHT22;56489;53.166;10.864;2022-10-18T14:46:21;15.50;99.90
14962;DHT22;56489;53.166;10.864;2022-10-18T14:48:59;15.50;99.90
14962;DHT22;56489;53.166;10.864;2022-10-18T14:51:30;15.50;99.90
14962;DHT22;56489;53.166;10.864;2022-10-18T14:53:58;15.40;99.90
14962;DHT22;56489;53.166;10.864;2022-10-18T14:56:28;15.30;99.90
14962;DHT22;56489;53.166;10.864;2022-10-18T14:58:59;15.30;99.90
14962;DHT22;56489;53.166;10.864;2022-10-18T15:01:30;15.30;99.90
14962;DHT22;56489;53.166;10.864;2022-10-18T15:04:01;15.20;99.90
14962;DHT22;56489;53.166;10.864;2022-10-18T15:06:31;15.10;99.90
14962;DHT22;56489;53.166;10.864;2022-10-18T15:09:00;15.10;99.90
14962;DHT22;56489;53.166;10.864;2022-10-18T15:11:30;15.00;99.90
14962;DHT22;56489;53.166;10.864;2022-10-18T15:14:00;15.00;99.90
14962;DHT22;56489;53.166;10.864;2022-10-18T15:16:35;15.00;99.90
14962;DHT22;56489;53.166;10.864;2022-10-18T15:21:53;14.90;99.90
14962;DHT22;56489;53.166;10.864;2022-10-18T15:24:40;14.90;99.90
14962;DHT22;56489;53.166;10.864;2022-10-18T15:27:20;14.80;99.90
14962;DHT22;56489;53.166;10.864;2022-10-18T15:29:48;14.70;99.90
14962;DHT22;56489;53.166;10.864;2022-10-18T15:32:19;14.60;99.90
14962;DHT22;56489;53.166;10.864;2022-10-18T15:34:47;14.60;99.90
14962;DHT22;56489;53.166;10.864;2022-10-18T15:37:30;14.50;99.90
14962;DHT22;56489;53.166;10.864;2022-10-18T15:46:01;14.30;99.90
14962;DHT22;56489;53.166;10.864;2022-10-18T15:48:37;14.30;99.90
14962;DHT22;56489;53.166;10.864;2022-10-18T15:51:22;14.20;99.90
14962;DHT22;56489;53.166;10.864;2022-10-18T15:53:59;14.10;99.90
14962;DHT22;56489;53.166;10.864;2022-10-18T15:56:34;14.00;99.90
14962;DHT22;56489;53.166;10.864;2022-10-18T15:59:20;14.00;99.90
14962;DHT22;56489;53.166;10.864;2022-10-18T16:01:47;13.90;99.90
14962;DHT22;56489;53.166;10.864;2022-10-18T16:06:53;13.70;99.90
14962;DHT22;56489;53.166;10.864;2022-10-18T16:09:23;13.70;99.90
14962;DHT22;56489;53.166;10.864;2022-10-18T16:11:50;13.60;99.90
14962;DHT22;56489;53.166;10.864;2022-10-18T16:14:24;13.60;99.90
14962;DHT22;56489;53.166;10.864;2022-10-18T16:16:59;13.50;99.90
14962;DHT22;56489;53.166;10.864;2022-10-18T16:19:27;13.40;99.90
14962;DHT22;56489;53.166;10.864;2022-10-18T16:21:54;13.40;99.90
14962;DHT22;56489;53.166;10.864;2022-10-18T16:24:21;13.30;99.90
14962;DHT22;56489;53.166;10.864;2022-10-18T16:26:49;13.30;99.90
14962;DHT22;56489;53.166;10.864;2022-10-18T16:29:21;13.20;99.90
14962;DHT22;56489;53.166;10.864;2022-10-18T16:31:50;13.20;99.90
14962;DHT22;56489;53.166;10.864;2022-10-18T16:34:19;13.10;99.90
14962;DHT22;56489;53.166;10.864;2022-10-18T16:36:46;13.00;99.90
14962;DHT22;56489;53.166;10.864;2022-10-18T16:39:18;12.90;99.90
14962;DHT22;56489;53.166;10.864;2022-10-18T16:41:46;12.90;99.90
14962;DHT22;56489;53.166;10.864;2022-10-18T16:44:13;12.90;99.90
14962;DHT22;56489;53.166;10.864;2022-10-18T16:46:41;12.80;99.90
14962;DHT22;56489;53.166;10.864;2022-10-18T16:49:20;12.80;99.90
14962;DHT22;56489;53.166;10.864;2022-10-18T16:51:51;12.80;99.90
14962;DHT22;56489;53.166;10.864;2022-10-18T16:54:18;12.80;99.90
14962;DHT22;56489;53.166;10.864;2022-10-18T16:56:45;12.80;99.90
14962;DHT22;56489;53.166;10.864;2022-10-18T16:59:28;12.70;99.90
14962;DHT22;56489;53.166;10.864;2022-10-18T17:01:56;12.70;99.90
14962;DHT22;56489;53.166;10.864;2022-10-18T17:04:22;12.70;99.90
14962;DHT22;56489;53.166;10.864;2022-10-18T17:06:56;12.70;99.90
14962;DHT22;56489;53.166;10.864;2022-10-18T17:09:24;12.70;99.90
14962;DHT22;56489;53.166;10.864;2022-10-18T17:11:51;12.70;99.90
14962;DHT22;56489;53.166;10.864;2022-10-18T17:14:18;12.60;99.90
14962;DHT22;56489;53.166;10.864;2022-10-18T17:16:44;12.60;99.90
14962;DHT22;56489;53.166;10.864;2022-10-18T17:19:19;12.60;99.90
14962;DHT22;56489;53.166;10.864;2022-10-18T17:21:46;12.60;99.90
14962;DHT22;56489;53.166;10.864;2022-10-18T17:24:13;12.70;99.90
14962;DHT22;56489;53.166;10.864;2022-10-18T17:26:39;12.70;99.90
14962;DHT22;56489;53.166;10.864;2022-10-18T17:29:06;12.80;99.90
14962;DHT22;56489;53.166;10.864;2022-10-18T17:31:33;12.90;99.90
14962;DHT22;56489;53.166;10.864;2022-10-18T17:34:01;12.90;99.90
14962;DHT22;56489;53.166;10.864;2022-10-18T17:36:29;13.00;99.90
14962;DHT22;56489;53.166;10.864;2022-10-18T17:38:56;13.00;99.90
14962;DHT22;56489;53.166;10.864;2022-10-18T17:41:23;13.10;99.90
14962;DHT22;56489;53.166;10.864;2022-10-18T17:43:51;13.10;99.90
14962;DHT22;56489;53.166;10.864;2022-10-18T17:46:18;13.10;99.90
14962;DHT22;56489;53.166;10.864;2022-10-18T17:48:45;13.10;99.90
14962;DHT22;56489;53.166;10.864;2022-10-18T17:51:14;13.20;99.90
14962;DHT22;56489;53.166;10.864;2022-10-18T17:53:41;13.20;99.90
14962;DHT22;56489;53.166;10.864;2022-10-18T17:56:09;13.20;99.90
14962;DHT22;56489;53.166;10.864;2022-10-18T17:58:36;13.20;99.90